地図

経路データ

SID SEASON NUMBER BASIN SUBBASIN NAME ISO_TIME NATURE LAT LON WMO_WIND WMO_PRES WMO_AGENCY TRACK_TYPE DIST2LAND LANDFALL IFLAG USA_AGENCY USA_ATCF_ID USA_LAT USA_LON USA_RECORD USA_STATUS USA_WIND USA_PRES USA_SSHS USA_R34_NE USA_R34_SE USA_R34_SW USA_R34_NW USA_R50_NE USA_R50_SE USA_R50_SW USA_R50_NW USA_R64_NE USA_R64_SE USA_R64_SW USA_R64_NW USA_POCI USA_ROCI USA_RMW USA_EYE TOKYO_LAT TOKYO_LON TOKYO_GRADE TOKYO_WIND TOKYO_PRES TOKYO_R50_DIR TOKYO_R50_LONG TOKYO_R50_SHORT TOKYO_R30_DIR TOKYO_R30_LONG TOKYO_R30_SHORT TOKYO_LAND CMA_LAT CMA_LON CMA_CAT CMA_WIND CMA_PRES HKO_LAT HKO_LON HKO_CAT HKO_WIND HKO_PRES NEWDELHI_LAT NEWDELHI_LON NEWDELHI_GRADE NEWDELHI_WIND NEWDELHI_PRES NEWDELHI_CI NEWDELHI_DP NEWDELHI_POCI REUNION_LAT REUNION_LON REUNION_TYPE REUNION_WIND REUNION_PRES REUNION_TNUM REUNION_CI REUNION_RMW REUNION_R34_NE REUNION_R34_SE REUNION_R34_SW REUNION_R34_NW REUNION_R50_NE REUNION_R50_SE REUNION_R50_SW REUNION_R50_NW REUNION_R64_NE REUNION_R64_SE REUNION_R64_SW REUNION_R64_NW BOM_LAT BOM_LON BOM_TYPE BOM_WIND BOM_PRES BOM_TNUM BOM_CI BOM_RMW BOM_R34_NE BOM_R34_SE BOM_R34_SW BOM_R34_NW BOM_R50_NE BOM_R50_SE BOM_R50_SW BOM_R50_NW BOM_R64_NE BOM_R64_SE BOM_R64_SW BOM_R64_NW BOM_ROCI BOM_POCI BOM_EYE BOM_POS_METHOD BOM_PRES_METHOD NADI_LAT NADI_LON NADI_CAT NADI_WIND NADI_PRES WELLINGTON_LAT WELLINGTON_LON WELLINGTON_WIND WELLINGTON_PRES DS824_LAT DS824_LON DS824_STAGE DS824_WIND DS824_PRES TD9636_LAT TD9636_LON TD9636_STAGE TD9636_WIND TD9636_PRES TD9635_LAT TD9635_LON TD9635_WIND TD9635_PRES TD9635_ROCI NEUMANN_LAT NEUMANN_LON NEUMANN_CLASS NEUMANN_WIND NEUMANN_PRES MLC_LAT MLC_LON MLC_CLASS MLC_WIND MLC_PRES USA_GUST BOM_GUST BOM_GUST_PER REUNION_GUST REUNION_GUST_PER USA_SEAHGT USA_SEARAD_NE USA_SEARAD_SE USA_SEARAD_SW USA_SEARAD_NW STORM_SPEED STORM_DIR
1857261N16301 1857 12 NA NA NOT_NAMED 1857-09-17 12:00:00 TS 16.0000 -59.5000 main 615 607 _____________O -1 16.0000 -59.5000 TD 30 7 268
1857261N16301 1857 12 NA NA NOT_NAMED 1857-09-17 15:00:00 TS 15.9876 -59.8601 main 605 599 _____________P -1 15.9876 -59.8601 TD 32 7 270
1857261N16301 1857 12 NA NA NOT_NAMED 1857-09-17 18:00:00 TS 16.0000 -60.2000 main 599 595 _____________O -1 16.0000 -60.2000 TS 35 6 276
1857261N16301 1857 12 NA CS NOT_NAMED 1857-09-17 21:00:00 TS 16.0499 -60.5074 main 595 561 _____________P -1 16.0499 -60.5074 TS 40 6 280
1857261N16301 1857 12 NA CS NOT_NAMED 1857-09-18 00:00:00 TS 16.1000 -60.8000 main 561 532 _____________O -1 16.1000 -60.8000 TS 45 6 276
1857261N16301 1857 12 NA CS NOT_NAMED 1857-09-18 03:00:00 TS 16.1075 -61.1000 main 532 504 _____________P -1 16.1075 -61.1000 TS 47 6 270
1857261N16301 1857 12 NA CS NOT_NAMED 1857-09-18 06:00:00 TS 16.1000 -61.4000 main 504 476 _____________O -1 16.1000 -61.4000 TS 50 6 268
1857261N16301 1857 12 NA CS NOT_NAMED 1857-09-18 09:00:00 TS 16.0924 -61.6925 main 476 448 _____________P -1 16.0924 -61.6925 TS 50 6 270
1857261N16301 1857 12 NA CS NOT_NAMED 1857-09-18 12:00:00 TS 16.1000 -62.0000 main 448 422 _____________O -1 16.1000 -62.0000 TS 50 6 275
1857261N16301 1857 12 NA CS NOT_NAMED 1857-09-18 15:00:00 TS 16.1500 -62.3424 main 422 380 _____________P -1 16.1500 -62.3424 TS 50 7 278
1857261N16301 1857 12 NA CS NOT_NAMED 1857-09-18 18:00:00 TS 16.2000 -62.7000 main 380 355 _____________O -1 16.2000 -62.7000 TS 50 7 275
1857261N16301 1857 12 NA CS NOT_NAMED 1857-09-18 21:00:00 TS 16.2074 -63.0500 main 347 323 _____________P -1 16.2074 -63.0500 TS 50 7 270
1857261N16301 1857 12 NA CS NOT_NAMED 1857-09-19 00:00:00 TS 16.2000 -63.4000 main 323 300 _____________O -1 16.2000 -63.4000 TS 50 7 269
1857261N16301 1857 12 NA CS NOT_NAMED 1857-09-19 03:00:00 TS 16.1999 -63.7500 main 300 270 _____________P -1 16.1999 -63.7500 TS 50 7 270
1857261N16301 1857 12 NA CS NOT_NAMED 1857-09-19 06:00:00 TS 16.2000 -64.1000 main 270 250 _____________O -1 16.2000 -64.1000 TS 50 7 269
1857261N16301 1857 12 NA CS NOT_NAMED 1857-09-19 09:00:00 TS 16.1925 -64.4575 main 244 227 _____________P -1 16.1925 -64.4575 TS 50 7 270
1857261N16301 1857 12 NA CS NOT_NAMED 1857-09-19 12:00:00 TS 16.2000 -64.8000 main 227 214 _____________O -1 16.2000 -64.8000 TS 50 6 275
1857261N16301 1857 12 NA CS NOT_NAMED 1857-09-19 15:00:00 TS 16.2500 -65.1149 main 214 194 _____________P -1 16.2500 -65.1149 TS 50 6 280
1857261N16301 1857 12 NA CS NOT_NAMED 1857-09-19 18:00:00 TS 16.3000 -65.4000 main 194 190 _____________O -1 16.3000 -65.4000 TS 50 5 276
1857261N16301 1857 12 NA CS NOT_NAMED 1857-09-19 21:00:00 TS 16.3074 -65.6500 main 186 181 _____________P -1 16.3074 -65.6500 TS 50 5 270
1857261N16301 1857 12 NA CS NOT_NAMED 1857-09-20 00:00:00 TS 16.3000 -65.9000 main 181 179 _____________O -1 16.3000 -65.9000 TS 50 5 269
1857261N16301 1857 12 NA CS NOT_NAMED 1857-09-20 03:00:00 TS 16.3000 -66.2000 main 179 179 _____________P -1 16.3000 -66.2000 TS 50 6 270
1857261N16301 1857 12 NA CS NOT_NAMED 1857-09-20 06:00:00 TS 16.3000 -66.5000 main 181 180 _____________O -1 16.3000 -66.5000 TS 50 5 269
1857261N16301 1857 12 NA CS NOT_NAMED 1857-09-20 09:00:00 TS 16.2923 -66.7350 main 180 179 _____________P -1 16.2923 -66.7350 TS 50 5 270
1857261N16301 1857 12 NA CS NOT_NAMED 1857-09-20 12:00:00 TS 16.3000 -67.0000 main 179 179 _____________O -1 16.3000 -67.0000 TS 50 6 275
1857261N16301 1857 12 NA CS NOT_NAMED 1857-09-20 15:00:00 TS 16.3501 -67.3849 main 169 169 _____________P -1 16.3501 -67.3849 TS 50 8 277
1857261N16301 1857 12 NA CS NOT_NAMED 1857-09-20 18:00:00 TS 16.4000 -67.8000 main 179 179 _____________O -1 16.4000 -67.8000 TS 50 7 274
1857261N16301 1857 12 NA CS NOT_NAMED 1857-09-20 21:00:00 TS 16.4074 -68.1500 main 198 198 _____________P -1 16.4074 -68.1500 TS 50 7 270
1857261N16301 1857 12 NA CS NOT_NAMED 1857-09-21 00:00:00 TS 16.4000 -68.5000 main 201 201 _____________O -1 16.4000 -68.5000 TS 50 7 269
1857261N16301 1857 12 NA CS NOT_NAMED 1857-09-21 03:00:00 TS 16.4000 -68.9000 main 201 201 _____________P -1 16.4000 -68.9000 TS 50 8 270
1857261N16301 1857 12 NA CS NOT_NAMED 1857-09-21 06:00:00 TS 16.4000 -69.3000 main 208 208 _____________O -1 16.4000 -69.3000 TS 50 7 268
1857261N16301 1857 12 NA CS NOT_NAMED 1857-09-21 09:00:00 TS 16.3773 -69.6426 main 211 200 _____________P -1 16.3773 -69.6426 TS 50 7 270
1857261N16301 1857 12 NA CS NOT_NAMED 1857-09-21 12:00:00 TS 16.4000 -70.0000 main 200 162 _____________O -1 16.4000 -70.0000 TS 50 8 282
1857261N16301 1857 12 NA CS NOT_NAMED 1857-09-21 15:00:00 TS 16.5350 -70.4349 main 162 113 _____________P -1 16.5350 -70.4349 TS 52 9 289
1857261N16301 1857 12 NA CS NOT_NAMED 1857-09-21 18:00:00 TS 16.7000 -70.9000 main 113 90 _____________O -1 16.7000 -70.9000 TS 55 9 287
1857261N16301 1857 12 NA CS NOT_NAMED 1857-09-21 21:00:00 TS 16.7999 -71.3576 main 89 81 _____________P -1 16.7999 -71.3576 TS 55 9 283
1857261N16301 1857 12 NA CS NOT_NAMED 1857-09-22 00:00:00 TS 16.9000 -71.8000 main 89 89 _____________O -1 16.9000 -71.8000 TS 55 8 287
1857261N16301 1857 12 NA CS NOT_NAMED 1857-09-22 03:00:00 TS 17.0498 -72.2000 main 108 100 _____________P -1 17.0498 -72.2000 TS 55 8 291
1857261N16301 1857 12 NA CS NOT_NAMED 1857-09-22 06:00:00 TS 17.2000 -72.6000 main 102 89 _____________O -1 17.2000 -72.6000 TS 55 9 287
1857261N16301 1857 12 NA CS NOT_NAMED 1857-09-22 09:00:00 TS 17.3000 -73.0501 main 94 74 _____________P -1 17.3000 -73.0501 TS 55 9 283
1857261N16301 1857 12 NA CS NOT_NAMED 1857-09-22 12:00:00 TS 17.4000 -73.5000 main 74 55 _____________O -1 17.4000 -73.5000 TS 55 8 287
1857261N16301 1857 12 NA CS NOT_NAMED 1857-09-22 15:00:00 TS 17.5423 -73.9001 main 55 44 _____________P -1 17.5423 -73.9001 TS 55 8 291
1857261N16301 1857 12 NA CS NOT_NAMED 1857-09-22 18:00:00 TS 17.7000 -74.3000 main 54 54 _____________O -1 17.7000 -74.3000 TS 55 9 290
1857261N16301 1857 12 NA CS NOT_NAMED 1857-09-22 21:00:00 TS 17.8502 -74.7800 main 61 61 _____________P -1 17.8502 -74.7800 TS 55 9 289
1857261N16301 1857 12 NA CS NOT_NAMED 1857-09-23 00:00:00 TS 18.0000 -75.2000 main 86 86 _____________O -1 18.0000 -75.2000 TS 55 7 296
1857261N16301 1857 12 NA CS NOT_NAMED 1857-09-23 03:00:00 TS 18.1573 -75.4376 main 91 74 _____________P -1 18.1573 -75.4376 TS 55 5 308
1857261N16301 1857 12 NA CS NOT_NAMED 1857-09-23 06:00:00 TS 18.3000 -75.6000 main 74 57 _____________O -1 18.3000 -75.6000 TS 55 4 307
1857261N16301 1857 12 NA CS NOT_NAMED 1857-09-23 09:00:00 TS 18.3999 -75.7776 main 57 46 _____________P -1 18.3999 -75.7776 TS 55 4 298
1857261N16301 1857 12 NA CS NOT_NAMED 1857-09-23 12:00:00 TS 18.5000 -76.0000 main 46 39 _____________O -1 18.5000 -76.0000 TS 55 6 295
1857261N16301 1857 12 NA CS NOT_NAMED 1857-09-23 15:00:00 TS 18.6501 -76.3349 main 55 46 _____________P -1 18.6501 -76.3349 TS 57 7 294
1857261N16301 1857 12 NA CS NOT_NAMED 1857-09-23 18:00:00 TS 18.8000 -76.7000 main 49 45 _____________O -1 18.8000 -76.7000 TS 60 7 291
1857261N16301 1857 12 NA CS NOT_NAMED 1857-09-23 21:00:00 TS 18.8999 -77.0076 main 55 55 _____________P -1 18.8999 -77.0076 TS 60 6 289
1857261N16301 1857 12 NA CS NOT_NAMED 1857-09-24 00:00:00 TS 19.0000 -77.3000 main 67 67 _____________O -1 19.0000 -77.3000 TS 60 6 294
1857261N16301 1857 12 NA CS NOT_NAMED 1857-09-24 03:00:00 TS 19.1500 -77.6000 main 78 56 _____________P -1 19.1500 -77.6000 TS 60 6 298
1857261N16301 1857 12 NA CS NOT_NAMED 1857-09-24 06:00:00 TS 19.3000 -77.9000 main 59 54 _____________O -1 19.3000 -77.9000 TS 60 6 295
1857261N16301 1857 12 NA CS NOT_NAMED 1857-09-24 09:00:00 TS 19.3998 -78.1777 main 68 68 _____________P -1 19.3998 -78.1777 TS 60 6 289
1857261N16301 1857 12 NA CS NOT_NAMED 1857-09-24 12:00:00 TS 19.5000 -78.5000 main 90 90 _____________O -1 19.5000 -78.5000 TS 60 8 289
1857261N16301 1857 12 NA CS NOT_NAMED 1857-09-24 15:00:00 TS 19.6500 -78.9274 main 126 126 _____________P -1 19.6500 -78.9274 TS 60 9 289
1857261N16301 1857 12 NA CS NOT_NAMED 1857-09-24 18:00:00 TS 19.8000 -79.4000 main 163 163 _____________O -1 19.8000 -79.4000 TS 60 9 286
1857261N16301 1857 12 NA CS NOT_NAMED 1857-09-24 21:00:00 TS 19.8999 -79.8502 main 190 189 _____________P -1 19.8999 -79.8502 TS 62 9 283
1857261N16301 1857 12 NA CS NOT_NAMED 1857-09-25 00:00:00 TS 20.0000 -80.3000 main 192 186 _____________O -1 20.0000 -80.3000 HU 65 9 287
1857261N16301 1857 12 NA CS NOT_NAMED 1857-09-25 03:00:00 TS 20.1574 -80.7499 main 182 182 _____________P -1 20.1574 -80.7499 HU 67 9 290
1857261N16301 1857 12 NA CS NOT_NAMED 1857-09-25 06:00:00 TS 20.3000 -81.2000 main 190 163 _____________O -1 20.3000 -81.2000 HU 70 9 284
1857261N16301 1857 12 NA CS NOT_NAMED 1857-09-25 09:00:00 TS 20.3649 -81.6502 main 157 133 _____________P -1 20.3649 -81.6502 HU 72 9 277
1857261N16301 1857 12 NA CS NOT_NAMED 1857-09-25 12:00:00 TS 20.4000 -82.1000 main 133 105 _____________O -1 20.4000 -82.1000 HU 75 8 276
1857261N16301 1857 12 NA CS NOT_NAMED 1857-09-25 15:00:00 TS 20.4573 -82.5425 main 105 100 _____________P -1 20.4573 -82.5425 HU 77 8 277
1857261N16301 1857 12 NA CS NOT_NAMED 1857-09-25 18:00:00 TS 20.5000 -83.0000 main 102 102 _____________O -1 20.5000 -83.0000 HU 80 9 273
1857261N16301 1857 12 NA CS NOT_NAMED 1857-09-25 21:00:00 TS 20.5074 -83.4926 main 123 123 _____________P -1 20.5074 -83.4926 HU 82 9 270
1857261N16301 1857 12 NA CS NOT_NAMED 1857-09-26 00:00:00 TS 20.5000 -84.0000 main 152 145 _____________O -1 20.5000 -84.0000 HU 85 9 270
1857261N16301 1857 12 NA CS NOT_NAMED 1857-09-26 03:00:00 TS 20.4999 -84.5000 main 145 145 _____________P -1 20.4999 -84.5000 HU 85 9 270
1857261N16301 1857 12 NA CS NOT_NAMED 1857-09-26 06:00:00 TS 20.5000 -85.0000 main 146 141 _____________O -1 20.5000 -85.0000 HU 85 9 269
1857261N16301 1857 12 NA CS NOT_NAMED 1857-09-26 09:00:00 TS 20.4774 -85.5077 main 141 98 _____________P -1 20.4774 -85.5077 HU 85 9 270
1857261N16301 1857 12 NA CS NOT_NAMED 1857-09-26 12:00:00 TS 20.5000 -86.0000 main 98 56 _____________O -1 20.5000 -86.0000 HU 85 9 280
1857261N16301 1857 12 NA CS NOT_NAMED 1857-09-26 15:00:00 TS 20.6348 -86.4573 main 47 0 _____________P -1 20.6348 -86.4573 HU 80 9 290
1857261N16301 1857 12 NA CS NOT_NAMED 1857-09-26 18:00:00 TS 20.8000 -86.9000 main 0 0 _____________O -1 20.8000 -86.9000 HU 75 9 287
1857261N16301 1857 12 NA NA NOT_NAMED 1857-09-26 21:00:00 TS 20.8999 -87.3577 main 0 0 _____________P -1 20.8999 -87.3577 HU 70 9 283
1857261N16301 1857 12 NA NA NOT_NAMED 1857-09-27 00:00:00 TS 21.0000 -87.8000 main 0 0 _____________O -1 21.0000 -87.8000 HU 65 8 288
1857261N16301 1857 12 NA NA NOT_NAMED 1857-09-27 03:00:00 TS 21.1498 -88.2000 main 0 0 _____________P -1 21.1498 -88.2000 HU 60 8 292
1857261N16301 1857 12 NA NA NOT_NAMED 1857-09-27 06:00:00 TS 21.3000 -88.6000 main 0 0 _____________O -1 21.3000 -88.6000 TS 55 8 288
1857261N16301 1857 12 NA GM NOT_NAMED 1857-09-27 09:00:00 TS 21.4000 -89.0502 main 11 11 _____________P -1 21.4000 -89.0502 TS 55 9 283
1857261N16301 1857 12 NA GM NOT_NAMED 1857-09-27 12:00:00 TS 21.5000 -89.5000 main 30 30 _____________O -1 21.5000 -89.5000 TS 55 8 287
1857261N16301 1857 12 NA GM NOT_NAMED 1857-09-27 15:00:00 TS 21.6499 -89.9150 main 44 44 _____________P -1 21.6499 -89.9150 TS 52 8 292
1857261N16301 1857 12 NA GM NOT_NAMED 1857-09-27 18:00:00 TS 21.8000 -90.3000 main 78 78 _____________O -1 21.8000 -90.3000 TS 50 7 290
1857261N16301 1857 12 NA GM NOT_NAMED 1857-09-27 21:00:00 TS 21.8998 -90.6502 main 98 98 _____________P -1 21.8998 -90.6502 TS 50 7 287
1857261N16301 1857 12 NA GM NOT_NAMED 1857-09-28 00:00:00 TS 22.0000 -91.0000 main 123 123 _____________O -1 22.0000 -91.0000 TS 50 7 290
1857261N16301 1857 12 NA GM NOT_NAMED 1857-09-28 03:00:00 TS 22.1500 -91.3999 main 167 167 _____________P -1 22.1500 -91.3999 TS 50 8 292
1857261N16301 1857 12 NA GM NOT_NAMED 1857-09-28 06:00:00 TS 22.3000 -91.8000 main 204 204 _____________O -1 22.3000 -91.8000 TS 50 7 290
1857261N16301 1857 12 NA GM NOT_NAMED 1857-09-28 09:00:00 TS 22.3998 -92.1427 main 235 235 _____________P -1 22.3998 -92.1427 TS 50 7 287
1857261N16301 1857 12 NA GM NOT_NAMED 1857-09-28 12:00:00 TS 22.5000 -92.5000 main 275 275 _____________O -1 22.5000 -92.5000 TS 50 8 288
1857261N16301 1857 12 NA GM NOT_NAMED 1857-09-28 15:00:00 TS 22.6425 -92.9350 main 316 316 _____________P -1 22.6425 -92.9350 TS 50 9 290
1857261N16301 1857 12 NA GM NOT_NAMED 1857-09-28 18:00:00 TS 22.8000 -93.4000 main 371 371 _____________O -1 22.8000 -93.4000 TS 50 9 290
1857261N16301 1857 12 NA GM NOT_NAMED 1857-09-28 21:00:00 TS 22.9499 -93.8501 main 378 351 _____________P -1 22.9499 -93.8501 TS 50 9 290
1857261N16301 1857 12 NA GM NOT_NAMED 1857-09-29 00:00:00 TS 23.1000 -94.3000 main 351 316 _____________O -1 23.1000 -94.3000 TS 50 9 290
1857261N16301 1857 12 NA GM NOT_NAMED 1857-09-29 03:00:00 TS 23.2574 -94.7575 main 306 265 _____________P -1 23.2574 -94.7575 TS 50 9 290
1857261N16301 1857 12 NA GM NOT_NAMED 1857-09-29 06:00:00 TS 23.4000 -95.2000 main 265 224 _____________O -1 23.4000 -95.2000 TS 50 8 288
1857261N16301 1857 12 NA GM NOT_NAMED 1857-09-29 09:00:00 TS 23.5074 -95.6151 main 224 183 _____________P -1 23.5074 -95.6151 TS 50 8 285
1857261N16301 1857 12 NA GM NOT_NAMED 1857-09-29 12:00:00 TS 23.6000 -96.0000 main 183 152 _____________O -1 23.6000 -96.0000 TS 50 7 286
1857261N16301 1857 12 NA GM NOT_NAMED 1857-09-29 15:00:00 TS 23.6999 -96.3651 main 142 111 _____________P -1 23.6999 -96.3651 TS 50 7 287
1857261N16301 1857 12 NA GM NOT_NAMED 1857-09-29 18:00:00 TS 23.8000 -96.7000 main 111 81 _____________O -1 23.8000 -96.7000 TS 50 6 289
1857261N16301 1857 12 NA GM NOT_NAMED 1857-09-29 21:00:00 TS 23.8999 -97.0076 main 81 50 _____________P -1 23.8999 -97.0076 TS 50 6 290
1857261N16301 1857 12 NA GM NOT_NAMED 1857-09-30 00:00:00 TS 24.0000 -97.3000 main 50 20 _____________O -1 24.0000 -97.3000 TS 50 6 290
1857261N16301 1857 12 NA GM NOT_NAMED 1857-09-30 03:00:00 TS 24.0999 -97.6001 main 20 0 _____________P -1 24.0999 -97.6001 TS 45 6 290
1857261N16301 1857 12 NA NA NOT_NAMED 1857-09-30 06:00:00 TS 24.2000 -97.9000 main 0 0 _____________O -1 24.2000 -97.9000 TS 40 6 290
1857261N16301 1857 12 NA NA NOT_NAMED 1857-09-30 09:00:00 TS 24.2999 -98.2001 main 0 0 _____________P -1 24.2999 -98.2001 TS 37 6 290
1857261N16301 1857 12 NA NA NOT_NAMED 1857-09-30 12:00:00 TS 24.4000 -98.5000 main 0 0 _____________O -1 24.4000 -98.5000 TS 35 6 290
1857261N16301 1857 12 NA NA NOT_NAMED 1857-09-30 15:00:00 TS 24.5001 -98.7999 main 0 0 _____________P -1 24.5001 -98.7999 TS 30 6 290
1857261N16301 1857 12 NA NA NOT_NAMED 1857-09-30 18:00:00 TS 24.6000 -99.1000 main 0 _____________O -1 24.6000 -99.1000 TD 25 6 290

IBTrACS Databaseについて

本データベースは、米国NOAAが公開する1842年以降の世界の熱帯低気圧のベストトラックデータアーカイブInternational Best Track Archive for Climate Stewardship (IBTrACS)を、ウェブで閲覧しやすい形式に変換したものです。

最終更新日:2021-10-25